Time;durP1;ratioP1;P1;durP2;ratioP2;P2;SDS_P1;SDS_P2;PMS_P1;PMS_P2;Temp;Humidity;BMP_temperature;BMP_pressure;BME280_temperature;BME280_humidity;BME280_pressure;Samples;Min_cycle;Max_cycle;Signal;HPM_P1;HPM_P2
2022/04/29 00:01:44;;;;;;;18.48;15.03;;;;;;;10.23;77.03;101432.44;2867071;80;21070;-87
2022/04/29 00:05:46;;;;;;;20.32;14.33;;;;;;;10.28;76.75;101434.82;2853973;82;21080;-84
2022/04/29 00:09:47;;;;;;;22.10;15.25;;;;;;;10.25;76.74;101438.52;2851147;82;21022;-86
2022/04/29 00:13:48;;;;;;;17.40;14.45;;;;;;;10.26;77.21;101432.73;2865121;80;21075;-87
2022/04/29 00:17:49;;;;;;;20.75;15.10;;;;;;;10.33;77.17;101434.55;2846719;80;21119;-86
2022/04/29 00:21:50;;;;;;;25.37;15.48;;;;;;;10.34;76.92;101431.77;2863363;80;21007;-87
2022/04/29 00:25:51;;;;;;;19.48;13.68;;;;;;;10.31;76.59;101428.44;2868232;81;21026;-87
2022/04/29 00:29:52;;;;;;;23.52;15.58;;;;;;;10.27;76.49;101425.14;2880088;81;20999;-87
2022/04/29 00:33:54;;;;;;;19.52;14.30;;;;;;;10.25;76.61;101424.38;2872599;80;21023;-87
2022/04/29 00:37:57;;;;;;;22.73;17.27;;;;;;;10.12;76.44;101429.58;2875566;80;21002;-81
2022/04/29 00:41:58;;;;;;;16.62;14.10;;;;;;;10.11;76.73;101426.54;2849187;81;21113;-87
2022/04/29 00:45:59;;;;;;;22.93;16.02;;;;;;;10.13;77.02;101429.98;2806814;82;21644;-86
2022/04/29 00:50:00;;;;;;;19.55;15.40;;;;;;;10.06;77.04;101422.86;2837144;81;21123;-87
2022/04/29 00:54:05;;;;;;;24.87;16.45;;;;;;;10.05;77.33;101422.48;2797470;84;21693;-86
2022/04/29 00:58:22;;;;;;;20.43;15.90;;;;;;;10.07;77.36;101415.27;2763984;83;21053;-86
2022/04/29 01:02:23;;;;;;;24.63;17.98;;;;;;;9.99;77.29;101417.06;2757524;84;21163;-86
2022/04/29 01:06:26;;;;;;;21.15;16.23;;;;;;;9.99;77.74;101411.75;2749151;82;21120;-86
2022/04/29 01:10:27;;;;;;;23.62;18.77;;;;;;;9.96;77.78;101401.31;2823496;83;21067;-86
2022/04/29 01:14:28;;;;;;;19.07;14.75;;;;;;;9.85;77.97;101404.62;2780896;83;21048;-86
2022/04/29 01:18:29;;;;;;;25.23;17.80;;;;;;;9.78;78.58;101405.92;2764639;84;21080;-86
2022/04/29 01:22:32;;;;;;;19.77;16.23;;;;;;;9.80;78.95;101401.37;2774047;84;21088;-85
2022/04/29 01:26:34;;;;;;;29.80;18.73;;;;;;;9.84;78.99;101405.58;2772000;84;21026;-86
2022/04/29 01:30:38;;;;;;;18.95;15.30;;;;;;;9.88;78.99;101404.05;2769458;84;21514;-86
2022/04/29 01:34:39;;;;;;;17.32;15.38;;;;;;;9.92;78.91;101400.25;2758455;85;21101;-87
2022/04/29 01:38:40;;;;;;;21.07;16.60;;;;;;;9.92;78.51;101401.58;2756560;84;21067;-86
2022/04/29 01:42:42;;;;;;;19.00;14.40;;;;;;;9.93;78.53;101391.33;2759065;83;21064;-87
2022/04/29 01:46:43;;;;;;;24.75;15.83;;;;;;;9.85;78.57;101383.36;2774452;84;21156;-87
2022/04/29 01:50:44;;;;;;;22.07;15.32;;;;;;;9.75;79.16;101390.66;2716476;83;21753;-86
2022/04/29 01:54:45;;;;;;;19.20;15.90;;;;;;;9.60;80.05;101391.09;2795447;83;21124;-86
2022/04/29 01:58:47;;;;;;;27.25;17.07;;;;;;;9.44;79.94;101386.73;2803842;83;20989;-87
2022/04/29 02:02:48;;;;;;;22.30;17.73;;;;;;;9.46;80.49;101395.45;2764962;84;21052;-86
2022/04/29 02:06:49;;;;;;;24.27;18.35;;;;;;;9.39;81.34;101384.34;2802285;83;21025;-86
2022/04/29 02:10:50;;;;;;;29.32;18.05;;;;;;;9.39;81.58;101383.01;2774036;83;20980;-87
2022/04/29 02:14:51;;;;;;;21.62;17.25;;;;;;;9.39;81.35;101378.16;2794088;83;21102;-85
2022/04/29 02:18:53;;;;;;;22.00;15.55;;;;;;;9.38;81.36;101379.97;2809377;83;21075;-86
2022/04/29 02:22:54;;;;;;;26.97;17.48;;;;;;;9.42;81.60;101380.62;2748776;84;21058;-85
2022/04/29 02:26:55;;;;;;;30.85;19.15;;;;;;;9.42;81.38;101374.85;2806813;83;21099;-87
2022/04/29 02:30:58;;;;;;;27.62;16.15;;;;;;;9.44;81.35;101380.09;2793709;83;21051;-85
2022/04/29 02:35:00;;;;;;;21.00;17.67;;;;;;;9.37;80.79;101376.06;2769880;84;21542;-87
2022/04/29 02:39:03;;;;;;;21.60;14.30;;;;;;;9.44;81.22;101374.78;2803232;83;21076;-85
2022/04/29 02:43:04;;;;;;;27.77;16.02;;;;;;;9.51;81.14;101376.56;2821512;83;21557;-87
2022/04/29 02:47:09;;;;;;;22.60;17.90;;;;;;;9.57;80.89;101377.55;2821861;83;21562;-84
2022/04/29 02:51:10;;;;;;;22.85;15.18;;;;;;;9.58;80.70;101374.78;2816607;83;21137;-86
2022/04/29 02:55:11;;;;;;;27.00;16.37;;;;;;;9.58;80.85;101381.91;2790601;83;21036;-89
2022/04/29 02:59:12;;;;;;;26.95;17.98;;;;;;;9.48;80.93;101373.64;2839886;81;21073;-84
2022/04/29 03:03:13;;;;;;;23.52;15.90;;;;;;;9.54;81.17;101375.92;2877210;81;21084;-87
2022/04/29 03:07:14;;;;;;;22.85;17.12;;;;;;;9.51;81.21;101376.11;2803549;82;21483;-89
2022/04/29 03:11:15;;;;;;;24.43;17.37;;;;;;;9.54;81.17;101374.59;2842263;81;21042;-89
2022/04/29 03:15:16;;;;;;;24.67;16.87;;;;;;;9.55;81.09;101372.80;2833782;81;21023;-86
2022/04/29 03:19:18;;;;;;;20.92;14.65;;;;;;;9.58;81.10;101377.44;2846524;80;21020;-87
2022/04/29 03:23:19;;;;;;;26.65;18.30;;;;;;;9.57;80.72;101381.53;2858171;82;21062;-84
2022/04/29 03:27:21;;;;;;;24.12;17.45;;;;;;;9.64;81.50;101387.33;2870057;80;21406;-87
2022/04/29 03:31:22;;;;;;;21.48;16.55;;;;;;;9.63;80.87;101384.27;2874492;82;21523;-87
2022/04/29 03:35:23;;;;;;;23.80;15.85;;;;;;;9.46;82.28;101383.50;2853313;80;21086;-83
2022/04/29 03:39:24;;;;;;;21.33;15.90;;;;;;;9.41;81.67;101385.55;2864201;82;21646;-87
2022/04/29 03:43:26;;;;;;;29.12;19.80;;;;;;;9.53;82.18;101390.14;2854068;81;21821;-88
2022/04/29 03:47:27;;;;;;;26.65;15.28;;;;;;;9.69;82.15;101394.55;2882717;80;21015;-88
2022/04/29 03:51:28;;;;;;;26.62;19.25;;;;;;;9.72;82.07;101403.65;2852406;80;21037;-86
2022/04/29 03:55:33;;;;;;;19.35;15.95;;;;;;;9.64;82.09;101399.28;2881023;80;21030;-88
2022/04/29 03:59:34;;;;;;;23.18;16.75;;;;;;;9.60;81.98;101398.61;2853115;81;21061;-85
2022/04/29 04:03:35;;;;;;;24.00;17.20;;;;;;;9.51;82.47;101401.80;2852098;82;21059;-89
2022/04/29 04:07:37;;;;;;;21.45;16.17;;;;;;;9.51;83.32;101405.32;2851384;80;21053;-87
2022/04/29 04:11:38;;;;;;;23.42;15.13;;;;;;;9.61;83.50;101408.28;2883200;81;21022;-87
2022/04/29 04:15:39;;;;;;;21.45;16.02;;;;;;;9.70;83.28;101417.50;2884802;80;21058;-83
2022/04/29 04:19:40;;;;;;;18.87;14.23;;;;;;;9.78;82.99;101415.72;2871858;80;20987;-83
2022/04/29 04:23:42;;;;;;;23.60;16.35;;;;;;;9.86;82.79;101419.63;2870037;81;21356;-87
2022/04/29 04:27:43;;;;;;;20.65;15.15;;;;;;;10.02;83.12;101423.14;2871241;81;21051;-84
2022/04/29 04:31:45;;;;;;;17.92;14.65;;;;;;;10.16;82.73;101427.14;2866532;81;21007;-83
2022/04/29 04:35:46;;;;;;;22.40;16.60;;;;;;;10.27;82.56;101417.16;2822478;81;20975;-82
2022/04/29 04:39:48;;;;;;;19.42;14.75;;;;;;;10.62;83.98;101423.87;2863959;81;21159;-83
2022/04/29 04:43:49;;;;;;;31.57;17.12;;;;;;;11.69;83.24;101422.20;2869391;82;21058;-83
2022/04/29 04:47:51;;;;;;;20.00;14.60;;;;;;;11.92;78.91;101421.95;2864550;80;21336;-82
2022/04/29 04:51:52;;;;;;;19.10;14.20;;;;;;;12.41;79.72;101424.33;2836728;82;20988;-84
2022/04/29 04:55:53;;;;;;;17.55;13.03;;;;;;;13.33;78.10;101426.14;2875755;81;21024;-83
2022/04/29 04:59:54;;;;;;;23.15;13.85;;;;;;;14.24;75.22;101433.04;2808186;80;21027;-83
2022/04/29 05:03:55;;;;;;;14.90;11.57;;;;;;;14.95;72.63;101434.07;2881680;79;20983;-83
2022/04/29 05:07:56;;;;;;;16.02;12.70;;;;;;;15.49;67.57;101432.73;2880650;81;21025;-83
2022/04/29 05:11:57;;;;;;;15.85;12.80;;;;;;;15.91;66.90;101441.77;2869538;81;21522;-83
2022/04/29 05:15:58;;;;;;;18.12;11.68;;;;;;;16.44;64.83;101451.51;2797303;82;21061;-83
2022/04/29 05:19:59;;;;;;;15.18;11.73;;;;;;;16.76;64.22;101443.73;2855161;81;21646;-83
2022/04/29 05:24:00;;;;;;;17.50;13.00;;;;;;;17.10;61.99;101450.11;2812314;82;21065;-83
2022/04/29 05:28:02;;;;;;;22.07;11.05;;;;;;;17.37;60.93;101451.23;2869265;81;21075;-83
2022/04/29 05:32:04;;;;;;;17.40;10.82;;;;;;;16.76;60.34;101453.64;2855166;82;21070;-83
2022/04/29 05:36:07;;;;;;;17.25;12.95;;;;;;;16.13;61.33;101454.19;2849823;80;21043;-84
2022/04/29 05:44:29;;;;;;;14.05;12.03;;;;;;;15.38;64.49;101459.61;2844945;82;21062;-83
2022/04/29 05:48:30;;;;;;;20.72;10.85;;;;;;;15.33;65.44;101457.31;2842574;81;21003;-84
2022/04/29 05:52:31;;;;;;;11.25;9.70;;;;;;;15.47;65.24;101452.12;2886845;81;21059;-84
2022/04/29 05:56:32;;;;;;;14.60;10.93;;;;;;;15.66;62.78;101454.11;2882992;81;21031;-83
2022/04/29 06:00:34;;;;;;;15.35;11.48;;;;;;;15.84;63.06;101463.74;2892650;81;21050;-83
2022/04/29 06:04:34;;;;;;;16.07;11.40;;;;;;;16.35;63.95;101465.73;2882561;81;21681;-82
2022/04/29 06:08:36;;;;;;;12.13;10.40;;;;;;;16.73;61.94;101464.16;2863250;82;20998;-83
2022/04/29 06:12:41;;;;;;;11.93;8.58;;;;;;;16.84;59.16;101460.03;2890955;81;21602;-84
2022/04/29 06:16:43;;;;;;;13.20;8.93;;;;;;;16.89;57.57;101460.09;2886053;80;20995;-83
2022/04/29 06:20:44;;;;;;;16.15;9.43;;;;;;;17.07;57.50;101457.12;2884106;81;21563;-83
2022/04/29 06:24:45;;;;;;;13.32;9.68;;;;;;;17.22;57.42;101455.37;2872871;81;21120;-83
2022/04/29 06:28:46;;;;;;;10.58;7.65;;;;;;;17.33;58.43;101454.37;2878990;80;21546;-83
2022/04/29 06:32:47;;;;;;;10.82;7.70;;;;;;;17.43;57.56;101457.89;2894619;80;21078;-83
2022/04/29 06:36:48;;;;;;;12.45;8.75;;;;;;;17.49;57.78;101461.38;2849032;82;21020;-83
2022/04/29 06:40:50;;;;;;;9.68;8.50;;;;;;;17.66;55.20;101462.97;2811547;81;21048;-83
2022/04/29 06:44:51;;;;;;;17.23;10.18;;;;;;;17.58;54.05;101458.81;2858080;81;20999;-83
2022/04/29 06:48:56;;;;;;;12.25;10.53;;;;;;;17.36;55.71;101458.95;2867708;80;21475;-83
2022/04/29 06:52:57;;;;;;;10.60;8.45;;;;;;;17.30;57.45;101462.22;2855496;80;21077;-83
2022/04/29 06:56:58;;;;;;;13.72;8.13;;;;;;;17.63;59.12;101471.33;2865334;81;20999;-83
2022/04/29 07:00:59;;;;;;;14.73;8.25;;;;;;;17.98;55.83;101472.55;2859550;81;21546;-83
2022/04/29 07:05:01;;;;;;;14.18;7.83;;;;;;;18.30;54.91;101468.66;2880216;80;21044;-83
2022/04/29 07:09:04;;;;;;;11.97;7.42;;;;;;;18.26;51.80;101473.48;2855656;80;21039;-82
2022/04/29 07:13:05;;;;;;;11.88;6.72;;;;;;;18.30;52.91;101472.70;2902145;80;21042;-82
2022/04/29 07:17:08;;;;;;;11.70;7.37;;;;;;;18.52;53.72;101471.97;2886825;81;21058;-83
2022/04/29 07:21:09;;;;;;;7.42;6.62;;;;;;;18.70;53.29;101479.59;2873422;82;21055;-83
2022/04/29 07:25:13;;;;;;;8.80;6.90;;;;;;;18.90;54.13;101477.27;2860594;81;21033;-83
2022/04/29 07:29:14;;;;;;;12.88;7.37;;;;;;;19.06;53.03;101471.23;2849911;82;21065;-83
2022/04/29 07:33:15;;;;;;;10.63;7.97;;;;;;;19.02;51.30;101466.66;2873290;80;20983;-83
2022/04/29 07:41:45;;;;;;;9.40;6.35;;;;;;;19.16;50.81;101473.37;2873766;79;21026;-83
2022/04/29 07:45:46;;;;;;;10.48;6.37;;;;;;;19.48;49.84;101471.98;2889318;81;21086;-83
2022/04/29 07:49:47;;;;;;;12.37;7.40;;;;;;;19.38;48.91;101483.34;2881522;80;21154;-84
2022/04/29 07:53:48;;;;;;;10.43;5.90;;;;;;;19.44;48.93;101475.14;2882523;80;21039;-83
2022/04/29 07:57:50;;;;;;;10.48;7.45;;;;;;;19.63;47.81;101469.56;2878397;81;21589;-83
2022/04/29 08:01:51;;;;;;;11.40;6.97;;;;;;;19.80;48.22;101475.09;2879052;80;21739;-82
2022/04/29 08:05:52;;;;;;;9.13;6.40;;;;;;;19.94;49.11;101465.59;2857394;81;21009;-84
2022/04/29 08:09:54;;;;;;;8.70;6.80;;;;;;;19.87;48.72;101465.86;2863410;81;21648;-84
2022/04/29 08:13:56;;;;;;;8.28;6.42;;;;;;;19.86;50.25;101463.65;2839339;81;21047;-83
2022/04/29 08:17:58;;;;;;;11.88;7.33;;;;;;;19.62;48.38;101462.96;2876998;81;21008;-83
2022/04/29 08:21:59;;;;;;;9.93;5.97;;;;;;;19.46;50.30;101463.20;2864224;80;21056;-83
2022/04/29 08:26:01;;;;;;;7.62;6.65;;;;;;;19.65;50.58;101458.11;2818487;81;21015;-81
2022/04/29 08:30:06;;;;;;;8.50;6.53;;;;;;;19.84;50.06;101459.74;2891760;80;21043;-83
2022/04/29 08:34:09;;;;;;;10.13;6.08;;;;;;;19.82;49.38;101450.95;2887333;80;21608;-83
2022/04/29 08:38:11;;;;;;;13.72;7.75;;;;;;;19.68;48.07;101449.69;2891777;80;21353;-84
2022/04/29 08:42:14;;;;;;;7.62;5.37;;;;;;;19.86;49.28;101446.10;2874348;81;21012;-84
2022/04/29 08:46:15;;;;;;;7.95;6.12;;;;;;;19.92;47.61;101443.30;2844717;81;21043;-83
2022/04/29 08:50:19;;;;;;;11.00;6.62;;;;;;;19.78;48.95;101436.09;2859617;80;21003;-82
2022/04/29 08:58:40;;;;;;;8.95;5.35;;;;;;;19.61;48.85;101435.63;2870079;81;21510;-83
2022/04/29 09:02:41;;;;;;;9.10;6.60;;;;;;;19.49;49.36;101432.34;2874545;80;21512;-84
2022/04/29 09:06:49;;;;;;;7.62;4.15;;;;;;;19.57;49.79;101427.52;2870775;82;21064;-82
2022/04/29 09:10:57;;;;;;;9.48;6.05;;;;;;;19.72;48.51;101421.89;2867119;81;21050;-80
2022/04/29 09:15:15;;;;;;;7.12;4.70;;;;;;;19.84;46.95;101426.00;2895459;79;21030;-82
2022/04/29 09:19:34;;;;;;;6.08;4.65;;;;;;;19.81;47.31;101422.27;2859716;80;21010;-83
2022/04/29 09:23:39;;;;;;;6.95;4.83;;;;;;;19.67;48.25;101413.43;2900226;80;20960;-83
2022/04/29 09:28:02;;;;;;;6.97;5.83;;;;;;;19.61;47.41;101413.55;2882501;81;21039;-80
2022/04/29 09:32:04;;;;;;;7.28;4.70;;;;;;;19.49;49.14;101415.66;2869759;81;20992;-83
2022/04/29 09:36:06;;;;;;;7.10;4.90;;;;;;;19.54;49.77;101414.68;2879719;81;21043;-83
2022/04/29 09:40:08;;;;;;;7.37;6.05;;;;;;;19.63;47.76;101410.67;2864033;81;21015;-83
2022/04/29 09:44:14;;;;;;;7.00;4.87;;;;;;;19.48;49.15;101411.77;2849064;81;21604;-83
2022/04/29 09:48:16;;;;;;;4.75;4.12;;;;;;;19.52;49.62;101409.95;2874835;80;21006;-83
2022/04/29 09:52:20;;;;;;;7.75;4.05;;;;;;;19.62;47.75;101407.15;2866364;81;21035;-83
2022/04/29 09:56:21;;;;;;;9.13;7.03;;;;;;;19.52;50.46;101401.85;2873590;81;21026;-83
2022/04/29 10:00:24;;;;;;;6.40;5.58;;;;;;;19.74;52.04;101406.37;2849322;81;21013;-83
2022/04/29 10:04:25;;;;;;;11.38;6.08;;;;;;;19.84;49.17;101405.75;2888226;81;21653;-83
2022/04/29 10:08:27;;;;;;;6.33;4.37;;;;;;;19.93;51.76;101400.45;2899720;81;21637;-83
2022/04/29 10:12:29;;;;;;;8.65;5.25;;;;;;;20.16;51.66;101394.47;2831646;81;20992;-81
2022/04/29 10:16:33;;;;;;;9.38;5.30;;;;;;;20.00;48.17;101399.30;2859906;82;21086;-83
2022/04/29 10:24:57;;;;;;;8.10;4.58;;;;;;;19.84;49.54;101382.80;2858994;81;21035;-83
2022/04/29 10:29:00;;;;;;;6.80;5.58;;;;;;;19.79;49.80;101390.55;2881446;82;21062;-83
2022/04/29 10:33:14;;;;;;;6.97;4.97;;;;;;;19.75;50.19;101383.78;2885898;80;21058;-83
2022/04/29 10:37:15;;;;;;;7.00;4.28;;;;;;;19.88;49.41;101382.51;2867952;81;20996;-83
2022/04/29 10:41:24;;;;;;;6.75;5.55;;;;;;;20.01;46.72;101376.17;2840450;81;21004;-84
2022/04/29 10:45:25;;;;;;;6.45;4.45;;;;;;;20.15;46.45;101377.93;2859172;81;21106;-83
2022/04/29 10:49:30;;;;;;;10.50;4.15;;;;;;;20.22;46.77;101373.55;2822399;82;21062;-83
2022/04/29 10:53:39;;;;;;;8.98;3.58;;;;;;;19.94;48.75;101374.61;2834027;81;21559;-83
2022/04/29 10:57:42;;;;;;;5.53;4.28;;;;;;;19.81;45.90;101364.75;2876237;81;21000;-82
2022/04/29 11:01:53;;;;;;;8.98;4.00;;;;;;;19.92;46.84;101366.36;2872104;81;21070;-80
2022/04/29 11:06:00;;;;;;;5.28;3.33;;;;;;;19.80;46.23;101359.84;2889648;80;21630;-82
2022/04/29 11:10:03;;;;;;;4.97;3.58;;;;;;;19.58;44.61;101359.91;2870292;81;21010;-83
2022/04/29 11:14:04;;;;;;;5.95;3.10;;;;;;;19.72;46.29;101358.95;2862847;81;21018;-82
2022/04/29 11:18:20;;;;;;;8.58;3.52;;;;;;;19.75;45.27;101352.73;2852279;80;21015;-84
2022/04/29 11:26:48;;;;;;;6.45;3.77;;;;;;;19.47;45.62;101341.27;2881685;81;21095;-82
2022/04/29 11:31:03;;;;;;;3.37;3.08;;;;;;;19.34;48.75;101336.30;2877596;81;21096;-83
2022/04/29 11:35:05;;;;;;;6.75;3.85;;;;;;;19.52;48.50;101337.09;2854510;81;20996;-84
2022/04/29 11:39:16;;;;;;;4.55;2.87;;;;;;;19.66;49.06;101334.82;2894448;81;20999;-83
2022/04/29 11:43:22;;;;;;;4.72;3.95;;;;;;;19.65;46.13;101333.95;2873234;80;21630;-83
2022/04/29 11:47:24;;;;;;;8.95;4.55;;;;;;;19.81;46.50;101327.78;2879098;80;20980;-81
2022/04/29 11:51:28;;;;;;;8.93;3.87;;;;;;;19.76;47.84;101317.16;2862477;81;21020;-81
2022/04/29 11:55:30;;;;;;;6.60;4.43;;;;;;;19.91;49.06;101312.84;2879722;80;21012;-82
2022/04/29 11:59:33;;;;;;;11.48;5.00;;;;;;;20.03;47.61;101312.05;2880872;81;21054;-83
2022/04/29 12:03:35;;;;;;;5.72;3.77;;;;;;;20.04;49.64;101297.53;2875272;81;31862;-83
2022/04/29 12:07:41;;;;;;;8.15;2.95;;;;;;;20.28;47.43;101289.18;2872094;80;21050;-81
2022/04/29 12:11:43;;;;;;;2.77;2.42;;;;;;;20.34;50.00;101288.50;2882597;81;21024;-82
2022/04/29 12:15:44;;;;;;;5.53;3.58;;;;;;;20.44;48.97;101280.25;2863006;81;21069;-82
2022/04/29 12:19:49;;;;;;;3.45;2.33;;;;;;;20.44;45.30;101279.39;2885162;80;21026;-83
2022/04/29 12:23:53;;;;;;;6.63;2.00;;;;;;;20.40;46.68;101270.27;2843671;82;21019;-84
2022/04/29 12:28:17;;;;;;;5.15;2.83;;;;;;;20.39;46.28;101267.75;2893625;80;21015;-83
2022/04/29 12:36:57;;;;;;;3.17;2.45;;;;;;;20.52;45.06;101256.44;2855371;81;20992;-84
2022/04/29 12:40:58;;;;;;;4.03;2.70;;;;;;;20.58;45.75;101253.05;2878308;81;21051;-83
2022/04/29 12:45:21;;;;;;;6.72;2.70;;;;;;;20.57;44.25;101241.08;2883277;81;21007;-84
2022/04/29 12:49:22;;;;;;;2.75;2.42;;;;;;;20.58;44.45;101240.06;2872410;81;21047;-81
2022/04/29 12:53:28;;;;;;;2.35;2.08;;;;;;;20.63;46.79;101230.41;2880559;80;21028;-83
2022/04/29 12:57:32;;;;;;;4.83;2.70;;;;;;;20.72;46.14;101224.50;2870055;82;21055;-84
2022/04/29 13:01:40;;;;;;;2.45;1.70;;;;;;;20.62;47.23;101221.97;2866176;82;21042;-83
2022/04/29 13:05:41;;;;;;;3.42;1.95;;;;;;;20.65;45.34;101225.71;2832940;81;21070;-83
2022/04/29 13:09:42;;;;;;;4.70;2.65;;;;;;;20.85;44.76;101217.28;2869153;81;21441;-83
2022/04/29 13:13:43;;;;;;;3.60;1.92;;;;;;;20.95;42.43;101216.56;2873164;80;21062;-83
2022/04/29 13:17:44;;;;;;;2.20;1.55;;;;;;;20.95;43.59;101211.16;2869256;81;21562;-80
2022/04/29 13:21:45;;;;;;;2.92;1.77;;;;;;;21.01;43.60;101214.18;2880769;80;21574;-83
2022/04/29 13:25:50;;;;;;;2.67;1.95;;;;;;;21.05;41.71;101210.14;2876254;80;21038;-83
2022/04/29 13:29:51;;;;;;;1.85;1.72;;;;;;;21.19;42.70;101193.70;2895850;80;21037;-83
2022/04/29 13:33:51;;;;;;;2.98;1.85;;;;;;;21.08;40.41;101198.97;2872132;81;21582;-83
2022/04/29 13:37:53;;;;;;;2.52;1.50;;;;;;;21.08;41.59;101195.73;2771310;82;21059;-82
2022/04/29 13:41:54;;;;;;;6.78;2.80;;;;;;;21.18;39.80;101187.95;2876095;81;21025;-81
2022/04/29 13:45:56;;;;;;;3.92;2.20;;;;;;;21.13;42.01;101188.47;2860158;80;21020;-80
2022/04/29 13:49:58;;;;;;;5.92;2.42;;;;;;;21.09;44.09;101185.78;2843658;81;21139;-81
2022/04/29 13:53:59;;;;;;;4.70;2.55;;;;;;;21.06;42.48;101183.42;2871485;81;21002;-85
2022/04/29 13:58:00;;;;;;;3.92;1.72;;;;;;;21.09;42.46;101173.61;2858559;82;21054;-83
2022/04/29 14:02:01;;;;;;;4.05;1.92;;;;;;;21.20;41.65;101164.27;2861766;80;20993;-82
2022/04/29 14:06:03;;;;;;;4.58;2.62;;;;;;;21.22;42.90;101177.11;2871659;81;21066;-84
2022/04/29 14:10:07;;;;;;;4.37;2.40;;;;;;;20.97;41.55;101175.31;2870610;81;20983;-82
2022/04/29 14:14:08;;;;;;;6.53;2.72;;;;;;;20.76;40.83;101166.89;2875543;81;21024;-79
2022/04/29 14:18:09;;;;;;;3.30;2.33;;;;;;;20.54;41.57;101166.09;2868506;80;21003;-86
2022/04/29 14:22:11;;;;;;;3.05;2.02;;;;;;;20.43;43.39;101166.91;2864626;82;21529;-84
2022/04/29 14:26:12;;;;;;;2.47;1.47;;;;;;;20.40;42.21;101167.59;2866029;81;20999;-82
2022/04/29 14:30:14;;;;;;;2.10;1.72;;;;;;;20.43;44.25;101162.86;2889010;80;21062;-83
2022/04/29 14:34:15;;;;;;;4.25;2.33;;;;;;;20.35;42.42;101169.14;2815832;81;21502;-83
2022/04/29 14:38:18;;;;;;;2.87;1.82;;;;;;;20.26;40.85;101157.48;2877126;81;21070;-82
2022/04/29 14:42:19;;;;;;;7.65;1.80;;;;;;;20.19;41.48;101155.09;2813725;83;20987;-83
2022/04/29 14:46:20;;;;;;;1.72;1.62;;;;;;;20.14;41.35;101154.77;2796062;83;21019;-82
2022/04/29 14:50:22;;;;;;;3.30;2.12;;;;;;;20.22;41.09;101152.91;2803239;82;21169;-79
2022/04/29 14:54:23;;;;;;;3.10;1.75;;;;;;;20.25;39.90;101151.22;2801064;82;21055;-79
2022/04/29 14:58:24;;;;;;;2.95;1.95;;;;;;;20.26;41.04;101142.11;2827827;82;21074;-80
2022/04/29 15:02:26;;;;;;;2.12;1.67;;;;;;;20.22;40.29;101139.90;2806058;83;21031;-82
2022/04/29 15:06:27;;;;;;;3.52;2.37;;;;;;;20.25;41.32;101138.23;2862660;80;21014;-82
2022/04/29 15:19:07;;;;;;;2.35;1.60;;;;;;;20.19;40.80;101133.00;2871478;80;21109;-82
2022/04/29 15:23:08;;;;;;;6.17;2.35;;;;;;;20.24;39.77;101127.92;2848451;81;21094;-82
2022/04/29 15:27:10;;;;;;;2.40;1.45;;;;;;;20.38;41.45;101127.75;2845563;81;21012;-80
2022/04/29 15:31:12;;;;;;;1.35;1.05;;;;;;;20.55;40.27;101132.64;2834995;81;21075;-80
2022/04/29 15:35:13;;;;;;;4.60;1.67;;;;;;;20.60;39.48;101128.58;2833068;80;21022;-80
2022/04/29 15:39:15;;;;;;;2.22;1.72;;;;;;;20.67;39.52;101126.37;2868070;80;21031;-83
2022/04/29 15:43:17;;;;;;;3.52;2.40;;;;;;;20.69;41.43;101127.03;2882258;80;21012;-81
2022/04/29 15:47:18;;;;;;;3.72;1.75;;;;;;;20.73;41.94;101123.45;2863495;79;21020;-83
2022/04/29 15:51:19;;;;;;;2.83;1.50;;;;;;;20.72;41.02;101120.42;2871671;80;21047;-83
2022/04/29 15:55:21;;;;;;;1.82;1.40;;;;;;;20.69;39.15;101113.52;2858643;81;21074;-83
2022/04/29 15:59:22;;;;;;;3.00;1.95;;;;;;;20.60;41.15;101108.30;2864917;80;21084;-82
2022/04/29 16:03:23;;;;;;;2.33;1.95;;;;;;;20.49;40.66;101106.28;2832567;80;21026;-82
2022/04/29 16:07:24;;;;;;;1.67;1.32;;;;;;;20.33;42.58;101104.45;2911553;80;21077;-83
2022/04/29 16:11:26;;;;;;;2.72;1.25;;;;;;;20.23;45.11;101102.42;2863641;80;21046;-83
2022/04/29 16:15:27;;;;;;;3.15;1.65;;;;;;;20.14;43.03;101096.17;2881754;80;21408;-81
2022/04/29 16:28:10;;;;;;;7.62;1.57;;;;;;;19.95;45.47;101094.67;2886588;81;21031;-83
2022/04/29 16:32:11;;;;;;;3.77;1.62;;;;;;;19.96;43.14;101088.26;2865172;81;21022;-81
2022/04/29 16:36:13;;;;;;;3.17;1.25;;;;;;;19.82;41.95;101081.13;2861393;81;21006;-85
2022/04/29 16:40:14;;;;;;;7.92;1.70;;;;;;;19.65;41.47;101083.46;2872962;80;21027;-80
2022/04/29 16:44:15;;;;;;;0.93;0.82;;;;;;;19.36;41.99;101082.06;2869875;80;21073;-85
2022/04/29 16:48:17;;;;;;;3.90;2.85;;;;;;;19.15;42.32;101087.39;2877102;80;21184;-83
2022/04/29 16:52:18;;;;;;;3.60;2.52;;;;;;;19.01;43.86;101088.86;2898627;80;20972;-85
2022/04/29 16:56:19;;;;;;;1.80;1.67;;;;;;;18.93;44.20;101093.68;2843394;81;20999;-84
2022/04/29 17:00:22;;;;;;;5.08;3.05;;;;;;;18.80;43.86;101102.70;2890557;80;21074;-84
2022/04/29 17:04:23;;;;;;;7.15;3.65;;;;;;;18.75;43.51;101100.48;2858927;81;21093;-84
2022/04/29 17:08:26;;;;;;;5.92;3.90;;;;;;;18.66;43.69;101100.92;2857782;81;21027;-84
2022/04/29 17:12:28;;;;;;;5.17;3.75;;;;;;;18.58;43.84;101106.80;2850438;80;20967;-85
2022/04/29 17:16:29;;;;;;;6.28;3.80;;;;;;;18.50;44.08;101102.20;2887298;80;21438;-86
2022/04/29 17:20:30;;;;;;;6.67;3.52;;;;;;;18.41;44.33;101103.47;2884219;80;21026;-83
2022/04/29 17:24:31;;;;;;;7.53;2.98;;;;;;;18.31;44.14;101104.57;2845213;81;21630;-82
2022/04/29 17:28:32;;;;;;;2.85;1.57;;;;;;;18.22;44.17;101103.66;2877566;80;21050;-86
2022/04/29 17:32:33;;;;;;;2.70;1.35;;;;;;;18.11;44.53;101104.75;2878868;80;21026;-84
2022/04/29 17:36:34;;;;;;;3.65;1.92;;;;;;;17.89;45.83;101108.75;2883719;80;21105;-85
2022/04/29 17:44:56;;;;;;;4.15;2.00;;;;;;;17.44;46.21;101103.23;2864384;80;21031;-84
2022/04/29 17:48:57;;;;;;;3.80;2.50;;;;;;;17.17;46.04;101107.64;2850289;81;21941;-86
2022/04/29 17:52:59;;;;;;;5.28;2.52;;;;;;;16.97;47.09;101109.52;2855592;80;21566;-84
2022/04/29 17:57:00;;;;;;;6.67;3.08;;;;;;;16.75;46.98;101112.93;2835980;81;21042;-84
2022/04/29 18:01:02;;;;;;;8.08;3.15;;;;;;;16.49;48.11;101122.11;2836773;82;21016;-86
2022/04/29 18:05:03;;;;;;;3.55;3.20;;;;;;;16.21;48.61;101124.70;2854038;81;21089;-87
2022/04/29 18:09:04;;;;;;;6.35;4.53;;;;;;;15.97;49.48;101129.49;2861342;81;21059;-84
2022/04/29 18:13:05;;;;;;;6.70;4.47;;;;;;;15.75;50.94;101131.94;2861820;80;21059;-83
2022/04/29 18:17:07;;;;;;;9.75;6.22;;;;;;;15.55;50.77;101130.56;2839259;82;21053;-86
2022/04/29 18:21:09;;;;;;;11.93;6.90;;;;;;;15.41;51.33;101130.43;2758691;84;21574;-87
2022/04/29 18:25:11;;;;;;;10.05;5.25;;;;;;;15.27;51.32;101124.96;2810604;81;21063;-86
2022/04/29 18:29:12;;;;;;;12.80;5.40;;;;;;;15.16;50.98;101131.78;2788423;83;21074;-85
2022/04/29 18:33:16;;;;;;;8.23;5.87;;;;;;;15.09;51.18;101138.64;2870519;80;21038;-91
2022/04/29 18:37:17;;;;;;;5.83;4.30;;;;;;;14.98;51.53;101133.75;2842289;81;21059;-86
2022/04/29 18:41:19;;;;;;;4.83;3.30;;;;;;;14.90;51.72;101137.57;2771701;83;21035;-91
2022/04/29 18:45:20;;;;;;;4.55;3.83;;;;;;;14.74;51.68;101138.06;2771017;82;21015;-87
2022/04/29 18:49:27;;;;;;;6.22;3.27;;;;;;;14.66;51.52;101136.52;2722295;85;21065;-88
2022/04/29 18:53:29;;;;;;;7.80;3.77;;;;;;;14.59;51.33;101141.54;2773970;83;21135;-88
2022/04/29 18:57:30;;;;;;;8.40;3.50;;;;;;;14.55;51.31;101141.45;2783633;83;21121;-89
2022/04/29 19:01:31;;;;;;;15.00;3.30;;;;;;;14.50;51.23;101144.98;2817156;83;21089;-88
2022/04/29 19:05:32;;;;;;;5.12;3.02;;;;;;;14.46;50.83;101148.91;2830779;82;21575;-86
2022/04/29 19:09:34;;;;;;;6.03;3.17;;;;;;;14.43;50.72;101154.02;2786446;84;21067;-94
2022/04/29 19:13:35;;;;;;;7.37;3.42;;;;;;;14.40;50.54;101155.63;2843948;81;21197;-84
2022/04/29 19:17:37;;;;;;;10.85;2.77;;;;;;;14.32;50.21;101158.95;2871593;80;21600;-86
2022/04/29 19:21:38;;;;;;;6.17;3.27;;;;;;;14.30;50.17;101160.07;2846999;81;21518;-83
2022/04/29 19:25:39;;;;;;;23.02;4.22;;;;;;;14.22;50.52;101159.37;2856095;80;21192;-84